createdAt,value
2019-05-26T00:00:57.946Z,991.60
2019-05-26T00:01:57.934Z,991.64
2019-05-26T00:02:57.903Z,991.60
2019-05-26T00:03:57.876Z,991.67
2019-05-26T00:04:57.865Z,991.61
2019-05-26T00:05:57.901Z,991.70
2019-05-26T00:06:57.886Z,991.71
2019-05-26T00:07:57.856Z,991.66
2019-05-26T00:08:57.831Z,991.68
2019-05-26T00:09:57.818Z,991.65
2019-05-26T00:10:57.801Z,991.71
2019-05-26T00:11:57.868Z,991.70
2019-05-26T00:12:57.780Z,991.69
2019-05-26T00:13:57.810Z,991.60
2019-05-26T00:14:57.791Z,991.62
2019-05-26T00:15:57.783Z,991.61
2019-05-26T00:16:57.755Z,991.57
2019-05-26T00:17:57.722Z,991.57
2019-05-26T00:18:57.724Z,991.57
2019-05-26T00:19:57.731Z,991.58
2019-05-26T00:20:57.721Z,991.61
2019-05-26T00:21:57.689Z,991.57
2019-05-26T00:22:57.677Z,991.61
2019-05-26T00:23:57.677Z,991.61
2019-05-26T00:24:57.662Z,991.62
2019-05-26T00:25:57.644Z,991.63
2019-05-26T00:26:57.659Z,991.58
2019-05-26T00:27:57.634Z,991.60
2019-05-26T00:28:57.600Z,991.58
2019-05-26T00:29:57.614Z,991.59
2019-05-26T00:30:57.591Z,991.58
2019-05-26T00:31:57.608Z,991.57
2019-05-26T00:32:57.575Z,991.60
2019-05-26T00:33:57.561Z,991.57
2019-05-26T00:34:57.556Z,991.56
2019-05-26T00:35:57.554Z,991.59
2019-05-26T00:36:57.539Z,991.53
2019-05-26T00:37:57.505Z,991.55
2019-05-26T00:38:57.501Z,991.55
2019-05-26T00:39:57.482Z,991.54
2019-05-26T00:40:57.479Z,991.52
2019-05-26T00:41:57.490Z,991.49
2019-05-26T00:42:57.473Z,991.51
2019-05-26T00:43:57.486Z,991.52
2019-05-26T00:44:57.431Z,991.55
2019-05-26T00:45:57.447Z,991.49
2019-05-26T00:46:57.454Z,991.49
2019-05-26T00:47:57.404Z,991.49
2019-05-26T00:48:57.398Z,991.47
2019-05-26T00:49:57.393Z,991.53
2019-05-26T00:50:57.386Z,991.50
2019-05-26T00:51:57.385Z,991.49
2019-05-26T00:52:57.350Z,991.50
2019-05-26T00:53:57.339Z,991.51
2019-05-26T00:54:57.358Z,991.49
2019-05-26T00:55:57.320Z,991.52
2019-05-26T00:56:57.310Z,991.46
2019-05-26T00:57:57.310Z,991.49
2019-05-26T00:58:57.302Z,991.47
2019-05-26T00:59:57.302Z,991.51
2019-05-26T01:00:57.277Z,991.50
2019-05-26T01:01:57.292Z,991.55
2019-05-26T01:02:57.274Z,991.53
2019-05-26T01:03:57.259Z,991.48
2019-05-26T01:04:57.237Z,991.53
2019-05-26T01:05:57.220Z,991.47
2019-05-26T01:06:57.191Z,991.46
2019-05-26T01:08:06.097Z,991.48
2019-05-26T01:08:58.184Z,991.45
2019-05-26T01:09:57.183Z,991.43
2019-05-26T01:11:00.971Z,991.45
2019-05-26T01:11:57.167Z,991.45
2019-05-26T01:12:57.159Z,991.46
2019-05-26T01:13:57.116Z,991.47
2019-05-26T01:14:57.123Z,991.43
2019-05-26T01:15:57.108Z,991.42
2019-05-26T01:16:57.133Z,991.43
2019-05-26T01:17:57.113Z,991.48
2019-05-26T01:18:57.077Z,991.45
2019-05-26T01:19:57.072Z,991.39
2019-05-26T01:20:57.045Z,991.43
2019-05-26T01:21:57.042Z,991.45
2019-05-26T01:22:57.048Z,991.38
2019-05-26T01:23:57.015Z,991.37
2019-05-26T01:24:57.026Z,991.37
2019-05-26T01:25:57.025Z,991.40
2019-05-26T01:26:56.997Z,991.42
2019-05-26T01:27:56.995Z,991.39
2019-05-26T01:28:56.970Z,991.39
2019-05-26T01:29:56.949Z,991.43
2019-05-26T01:30:56.946Z,991.46
2019-05-26T01:31:56.929Z,991.45
2019-05-26T01:32:56.961Z,991.43
2019-05-26T01:33:56.904Z,991.44
2019-05-26T01:34:56.926Z,991.41
2019-05-26T01:35:56.901Z,991.49
2019-05-26T01:36:56.913Z,991.47
2019-05-26T01:37:56.891Z,991.51
2019-05-26T01:38:56.880Z,991.47
2019-05-26T01:39:56.904Z,991.44
2019-05-26T01:40:56.828Z,991.45
2019-05-26T01:41:56.837Z,991.45
2019-05-26T01:42:56.821Z,991.49
2019-05-26T01:43:56.823Z,991.52
2019-05-26T01:44:56.794Z,991.52
2019-05-26T01:45:56.825Z,991.56
2019-05-26T01:46:56.848Z,991.52
2019-05-26T01:47:56.758Z,991.52
2019-05-26T01:48:56.747Z,991.50
2019-05-26T01:49:56.732Z,991.53
2019-05-26T01:50:56.728Z,991.59
2019-05-26T01:51:56.716Z,991.57
2019-05-26T01:52:56.756Z,991.57
2019-05-26T01:53:56.715Z,991.53
2019-05-26T01:54:56.706Z,991.42
2019-05-26T01:55:56.680Z,991.53
2019-05-26T01:56:56.691Z,991.55
2019-05-26T01:57:56.655Z,991.55
2019-05-26T01:58:56.633Z,991.54
2019-05-26T01:59:56.648Z,991.55
2019-05-26T02:00:56.638Z,991.50
2019-05-26T02:01:58.779Z,991.56
2019-05-26T02:02:56.608Z,991.51
2019-05-26T02:03:56.601Z,991.57
2019-05-26T02:04:56.572Z,991.53
2019-05-26T02:05:56.584Z,991.49
2019-05-26T02:06:56.545Z,991.50
2019-05-26T02:07:56.553Z,991.52
2019-05-26T02:08:56.531Z,991.50
2019-05-26T02:09:56.511Z,991.54
2019-05-26T02:10:56.512Z,991.53
2019-05-26T02:11:56.514Z,991.52
2019-05-26T02:12:56.490Z,991.53
2019-05-26T02:13:56.517Z,991.46
2019-05-26T02:14:57.786Z,991.46
2019-05-26T02:15:56.745Z,991.52
2019-05-26T02:16:57.346Z,991.48
2019-05-26T02:17:57.632Z,991.48
2019-05-26T02:18:56.422Z,991.49
2019-05-26T02:19:56.577Z,991.46
2019-05-26T02:20:57.443Z,991.52
2019-05-26T02:21:56.397Z,991.47
2019-05-26T02:22:57.301Z,991.48
2019-05-26T02:23:56.365Z,991.43
2019-05-26T02:24:57.285Z,991.45
2019-05-26T02:25:56.555Z,991.46
2019-05-26T02:26:56.350Z,991.47
2019-05-26T02:27:56.540Z,991.48
2019-05-26T02:28:56.507Z,991.44
2019-05-26T02:29:56.399Z,991.46
2019-05-26T02:30:56.294Z,991.36
2019-05-26T02:31:56.423Z,991.38
2019-05-26T02:32:56.282Z,991.39
2019-05-26T02:33:56.539Z,991.40
2019-05-26T02:34:56.307Z,991.35
2019-05-26T02:35:56.235Z,991.39
2019-05-26T02:36:56.225Z,991.44
2019-05-26T02:37:56.210Z,991.46
2019-05-26T02:39:02.683Z,991.38
2019-05-26T02:39:57.183Z,991.40
2019-05-26T02:40:56.177Z,991.42
2019-05-26T02:41:56.181Z,991.36
2019-05-26T02:42:56.152Z,991.34
2019-05-26T02:43:56.148Z,991.43
2019-05-26T02:44:59.336Z,991.37
2019-05-26T02:45:56.117Z,991.38
2019-05-26T02:46:56.109Z,991.40
2019-05-26T02:47:56.131Z,991.38
2019-05-26T02:48:56.129Z,991.45
2019-05-26T02:49:56.075Z,991.40
2019-05-26T02:50:56.064Z,991.37
2019-05-26T02:51:56.080Z,991.34
2019-05-26T02:52:56.081Z,991.39
2019-05-26T02:53:56.045Z,991.35
2019-05-26T02:54:56.022Z,991.36
2019-05-26T02:55:56.010Z,991.39
2019-05-26T02:56:56.008Z,991.42
2019-05-26T02:57:55.992Z,991.39
2019-05-26T02:58:56.021Z,991.38
2019-05-26T02:59:55.970Z,991.40
2019-05-26T03:00:55.967Z,991.43
2019-05-26T03:02:03.639Z,991.47
2019-05-26T03:02:56.930Z,991.50
2019-05-26T03:03:55.921Z,991.50
2019-05-26T03:04:55.961Z,991.46
2019-05-26T03:05:55.966Z,991.46
2019-05-26T03:06:55.904Z,991.49
2019-05-26T03:07:55.888Z,991.50
2019-05-26T03:08:55.876Z,991.45
2019-05-26T03:09:55.885Z,991.50
2019-05-26T03:10:55.851Z,991.50
2019-05-26T03:11:55.837Z,991.46
2019-05-26T03:12:55.824Z,991.46
2019-05-26T03:13:55.831Z,991.45
2019-05-26T03:14:55.846Z,991.41
2019-05-26T03:15:55.801Z,991.45
2019-05-26T03:16:55.799Z,991.55
2019-05-26T03:17:55.771Z,991.48
2019-05-26T03:18:55.831Z,991.52
2019-05-26T03:19:55.787Z,991.50
2019-05-26T03:20:55.780Z,991.51
2019-05-26T03:21:55.750Z,991.50
2019-05-26T03:22:55.740Z,991.50
2019-05-26T03:23:55.727Z,991.47
2019-05-26T03:24:55.706Z,991.52
2019-05-26T03:25:55.719Z,991.58
2019-05-26T03:26:55.673Z,991.55
2019-05-26T03:27:55.664Z,991.58
2019-05-26T03:28:55.647Z,991.60
2019-05-26T03:29:56.198Z,991.57
2019-05-26T03:30:56.271Z,991.60
2019-05-26T03:31:56.477Z,991.58
2019-05-26T03:32:55.624Z,991.63
2019-05-26T03:33:55.784Z,991.60
2019-05-26T03:34:55.719Z,991.59
2019-05-26T03:35:55.799Z,991.59
2019-05-26T03:36:55.785Z,991.61
2019-05-26T03:37:55.632Z,991.58
2019-05-26T03:38:55.750Z,991.59
2019-05-26T03:39:55.605Z,991.57
2019-05-26T03:40:55.579Z,991.56
2019-05-26T03:41:55.573Z,991.60
2019-05-26T03:42:55.709Z,991.54
2019-05-26T03:43:55.536Z,991.54
2019-05-26T03:44:55.539Z,991.55
2019-05-26T03:45:55.568Z,991.54
2019-05-26T03:46:55.506Z,991.55
2019-05-26T03:48:02.479Z,991.53
2019-05-26T03:48:55.434Z,991.60
2019-05-26T03:49:55.419Z,991.57
2019-05-26T03:50:55.418Z,991.60
2019-05-26T03:51:55.399Z,991.56
2019-05-26T03:52:55.411Z,991.53
2019-05-26T03:53:55.377Z,991.56
2019-05-26T03:54:55.367Z,991.54
2019-05-26T03:55:55.364Z,991.50
2019-05-26T03:56:55.373Z,991.55
2019-05-26T03:57:55.346Z,991.59
2019-05-26T03:58:55.318Z,991.53
2019-05-26T03:59:55.313Z,991.52
2019-05-26T04:00:55.321Z,991.58
2019-05-26T04:01:57.656Z,991.60
2019-05-26T04:02:55.279Z,991.62
2019-05-26T04:03:55.272Z,991.65
2019-05-26T04:04:55.269Z,991.65
2019-05-26T04:05:55.256Z,991.61
2019-05-26T04:06:55.238Z,991.65
2019-05-26T04:07:55.224Z,991.65
2019-05-26T04:08:55.214Z,991.68
2019-05-26T04:10:04.530Z,991.63
2019-05-26T04:10:56.236Z,991.67
2019-05-26T04:11:55.182Z,991.64
2019-05-26T04:12:55.169Z,991.68
2019-05-26T04:13:55.159Z,991.68
2019-05-26T04:14:55.224Z,991.71
2019-05-26T04:15:55.151Z,991.73
2019-05-26T04:16:56.428Z,991.72
2019-05-26T04:17:55.113Z,991.69
2019-05-26T04:18:55.106Z,991.73
2019-05-26T04:19:55.092Z,991.77
2019-05-26T04:20:55.090Z,991.75
2019-05-26T04:21:55.089Z,991.78
2019-05-26T04:22:55.099Z,991.74
2019-05-26T04:23:55.051Z,991.78
2019-05-26T04:24:55.035Z,991.77
2019-05-26T04:25:55.059Z,991.74
2019-05-26T04:26:55.019Z,991.76
2019-05-26T04:27:55.009Z,991.73
2019-05-26T04:28:54.997Z,991.74
2019-05-26T04:29:54.984Z,991.75
2019-05-26T04:30:54.983Z,991.73
2019-05-26T04:31:54.990Z,991.77
2019-05-26T04:32:54.954Z,991.74
2019-05-26T04:33:54.940Z,991.78
2019-05-26T04:34:54.941Z,991.77
2019-05-26T04:35:54.960Z,991.76
2019-05-26T04:36:54.908Z,991.77
2019-05-26T04:37:54.912Z,991.80
2019-05-26T04:38:54.888Z,991.79
2019-05-26T04:39:54.876Z,991.77
2019-05-26T04:40:54.884Z,991.81
2019-05-26T04:41:54.857Z,991.85
2019-05-26T04:42:54.954Z,991.79
2019-05-26T04:43:54.830Z,991.85
2019-05-26T04:44:54.827Z,991.81
2019-05-26T04:45:54.834Z,991.86
2019-05-26T04:46:54.807Z,991.87
2019-05-26T04:47:54.786Z,991.92
2019-05-26T04:48:54.798Z,991.88
2019-05-26T04:49:54.769Z,991.91
2019-05-26T04:50:54.755Z,991.89
2019-05-26T04:51:54.757Z,991.83
2019-05-26T04:53:06.277Z,991.91
2019-05-26T04:53:55.729Z,991.88
2019-05-26T04:54:54.710Z,991.91
2019-05-26T04:55:54.700Z,991.88
2019-05-26T04:56:54.735Z,991.90
2019-05-26T04:57:54.682Z,991.90
2019-05-26T04:58:54.667Z,991.90
2019-05-26T04:59:54.656Z,991.94
2019-05-26T05:00:54.646Z,991.99
2019-05-26T05:01:54.643Z,991.98
2019-05-26T05:02:54.640Z,991.90
2019-05-26T05:03:54.612Z,991.91
2019-05-26T05:04:54.600Z,991.93
2019-05-26T05:05:54.591Z,991.88
2019-05-26T05:06:54.593Z,991.96
2019-05-26T05:07:54.574Z,991.92
2019-05-26T05:08:54.558Z,991.92
2019-05-26T05:09:54.566Z,991.99
2019-05-26T05:10:54.536Z,991.95
2019-05-26T05:11:54.535Z,991.92
2019-05-26T05:12:54.515Z,991.89
2019-05-26T05:13:54.506Z,991.91
2019-05-26T05:14:54.492Z,991.92
2019-05-26T05:15:54.482Z,991.94
2019-05-26T05:16:54.480Z,991.93
2019-05-26T05:17:54.462Z,991.99
2019-05-26T05:18:54.452Z,991.87
2019-05-26T05:19:54.504Z,991.86
2019-05-26T05:20:54.428Z,991.85
2019-05-26T05:21:54.432Z,991.86
2019-05-26T05:22:54.407Z,991.86
2019-05-26T05:23:54.394Z,991.90
2019-05-26T05:24:54.385Z,991.93
2019-05-26T05:25:54.375Z,991.96
2019-05-26T05:26:54.372Z,991.98
2019-05-26T05:27:54.380Z,991.94
2019-05-26T05:28:54.340Z,991.95
2019-05-26T05:29:54.329Z,991.98
2019-05-26T05:30:54.322Z,991.96
2019-05-26T05:31:54.322Z,991.97
2019-05-26T05:32:54.297Z,991.96
2019-05-26T05:33:54.315Z,992.03
2019-05-26T05:34:54.283Z,991.97
2019-05-26T05:35:54.266Z,991.98
2019-05-26T05:36:54.267Z,991.89
2019-05-26T05:37:54.243Z,991.92
2019-05-26T05:38:54.231Z,991.95
2019-05-26T05:39:54.220Z,992.01
2019-05-26T05:40:59.366Z,991.92
2019-05-26T05:41:55.232Z,991.98
2019-05-26T05:42:54.188Z,992.05
2019-05-26T05:43:54.176Z,991.96
2019-05-26T05:44:54.167Z,991.96
2019-05-26T05:45:54.158Z,992.01
2019-05-26T05:46:54.163Z,991.97
2019-05-26T05:47:54.131Z,992.01
2019-05-26T05:48:54.120Z,991.99
2019-05-26T05:49:54.114Z,991.98
2019-05-26T05:50:54.099Z,991.95
2019-05-26T05:51:54.119Z,991.96
2019-05-26T05:52:54.111Z,991.99
2019-05-26T05:53:54.067Z,991.93
2019-05-26T05:54:54.057Z,991.95
2019-05-26T05:55:54.046Z,991.90
2019-05-26T05:56:55.756Z,991.91
2019-05-26T05:57:54.037Z,991.89
2019-05-26T05:58:54.013Z,991.90
2019-05-26T05:59:54.000Z,991.90
2019-05-26T06:00:53.998Z,991.90
2019-05-26T06:01:53.979Z,991.90
2019-05-26T06:02:53.980Z,991.91
2019-05-26T06:03:53.956Z,991.91
2019-05-26T06:04:53.946Z,991.94
2019-05-26T06:05:53.932Z,991.89
2019-05-26T06:06:53.923Z,991.90
2019-05-26T06:07:53.928Z,991.94
2019-05-26T06:08:53.920Z,991.91
2019-05-26T06:09:53.890Z,991.92
2019-05-26T06:10:53.878Z,991.90
2019-05-26T06:11:56.848Z,991.91
2019-05-26T06:12:53.867Z,991.84
2019-05-26T06:13:53.847Z,991.84
2019-05-26T06:14:53.863Z,991.89
2019-05-26T06:15:53.824Z,991.87
2019-05-26T06:16:53.815Z,991.85
2019-05-26T06:17:53.814Z,991.89
2019-05-26T06:18:53.795Z,991.90
2019-05-26T06:19:53.783Z,991.89
2019-05-26T06:20:53.772Z,991.87
2019-05-26T06:21:53.772Z,991.88
2019-05-26T06:22:53.763Z,991.85
2019-05-26T06:23:53.738Z,991.91
2019-05-26T06:24:53.729Z,991.84
2019-05-26T06:25:53.715Z,991.85
2019-05-26T06:26:53.703Z,991.86
2019-05-26T06:27:53.731Z,991.88
2019-05-26T06:28:53.682Z,991.85
2019-05-26T06:29:59.011Z,991.81
2019-05-26T06:30:54.660Z,991.80
2019-05-26T06:31:53.741Z,991.82
2019-05-26T06:32:53.652Z,991.82
2019-05-26T06:33:53.662Z,991.84
2019-05-26T06:34:53.615Z,991.78
2019-05-26T06:35:53.607Z,991.84
2019-05-26T06:36:53.597Z,991.82
2019-05-26T06:37:53.596Z,991.79
2019-05-26T06:38:53.575Z,991.83
2019-05-26T06:39:53.573Z,991.80
2019-05-26T06:40:53.554Z,991.76
2019-05-26T06:41:53.551Z,991.79
2019-05-26T06:42:53.569Z,991.77
2019-05-26T06:43:53.520Z,991.82
2019-05-26T06:44:54.234Z,991.78
2019-05-26T06:45:53.498Z,991.82
2019-05-26T06:46:53.485Z,991.79
2019-05-26T06:47:53.477Z,991.76
2019-05-26T06:48:53.491Z,991.76
2019-05-26T06:49:53.469Z,991.77
2019-05-26T06:50:53.441Z,991.81
2019-05-26T06:51:53.430Z,991.75
2019-05-26T06:52:53.418Z,991.77
2019-05-26T06:53:53.419Z,991.77
2019-05-26T06:54:53.399Z,991.72
2019-05-26T06:55:53.400Z,991.73
2019-05-26T06:56:53.378Z,991.75
2019-05-26T06:57:53.366Z,991.78
2019-05-26T06:58:53.365Z,991.76
2019-05-26T06:59:53.345Z,991.84
2019-05-26T07:00:53.354Z,991.78
2019-05-26T07:01:53.324Z,991.83
2019-05-26T07:02:53.325Z,991.87
2019-05-26T07:03:53.317Z,991.82
2019-05-26T07:04:53.295Z,991.86
2019-05-26T07:05:53.284Z,991.82
2019-05-26T07:06:53.272Z,991.80
2019-05-26T07:07:53.260Z,991.82
2019-05-26T07:08:53.289Z,991.77
2019-05-26T07:09:53.308Z,991.85
2019-05-26T07:10:53.227Z,991.75
2019-05-26T07:11:59.678Z,991.86
2019-05-26T07:12:54.204Z,991.85
2019-05-26T07:13:53.205Z,991.83
2019-05-26T07:14:53.199Z,991.83
2019-05-26T07:15:53.173Z,991.85
2019-05-26T07:16:53.162Z,991.79
2019-05-26T07:17:53.150Z,991.78
2019-05-26T07:18:53.150Z,991.76
2019-05-26T07:19:53.129Z,991.78
2019-05-26T07:20:53.117Z,991.74
2019-05-26T07:21:53.129Z,991.70
2019-05-26T07:22:53.095Z,991.71
2019-05-26T07:23:53.093Z,991.75
2019-05-26T07:24:53.075Z,991.69
2019-05-26T07:25:53.064Z,991.76
2019-05-26T07:26:53.052Z,991.69
2019-05-26T07:27:53.053Z,991.71
2019-05-26T07:28:53.045Z,991.67
2019-05-26T07:29:53.018Z,991.75
2019-05-26T07:30:53.007Z,991.79
2019-05-26T07:31:52.996Z,991.75
2019-05-26T07:32:52.985Z,991.74
2019-05-26T07:33:52.994Z,991.72
2019-05-26T07:34:52.965Z,991.73
2019-05-26T07:35:52.954Z,991.71
2019-05-26T07:36:52.942Z,991.72
2019-05-26T07:37:52.931Z,991.70
2019-05-26T07:38:52.929Z,991.74
2019-05-26T07:39:52.913Z,991.75
2019-05-26T07:40:52.916Z,991.67
2019-05-26T07:42:08.777Z,991.69
2019-05-26T07:42:53.879Z,991.67
2019-05-26T07:43:52.876Z,991.69
2019-05-26T07:44:52.854Z,991.65
2019-05-26T07:45:52.843Z,991.68
2019-05-26T07:46:52.834Z,991.74
2019-05-26T07:47:52.823Z,991.70
2019-05-26T07:48:52.824Z,991.71
2019-05-26T07:49:52.801Z,991.68
2019-05-26T07:50:52.793Z,991.64
2019-05-26T07:51:52.786Z,991.66
2019-05-26T07:52:52.768Z,991.74
2019-05-26T07:53:56.018Z,991.74
2019-05-26T07:54:52.750Z,991.79
2019-05-26T07:55:52.741Z,991.70
2019-05-26T07:56:52.725Z,991.73
2019-05-26T07:57:52.720Z,991.67
2019-05-26T07:58:52.735Z,991.71
2019-05-26T07:59:52.692Z,991.77
2019-05-26T08:00:52.685Z,991.72
2019-05-26T08:01:52.672Z,991.76
2019-05-26T08:02:52.667Z,991.71
2019-05-26T08:03:52.659Z,991.66
2019-05-26T08:04:52.642Z,991.66
2019-05-26T08:05:52.628Z,991.67
2019-05-26T08:06:52.620Z,991.61
2019-05-26T08:07:52.606Z,991.70
2019-05-26T08:08:52.634Z,991.62
2019-05-26T08:09:52.599Z,991.67
2019-05-26T08:10:52.573Z,991.63
2019-05-26T08:11:52.563Z,991.62
2019-05-26T08:12:52.557Z,991.67
2019-05-26T08:13:52.542Z,991.62
2019-05-26T08:14:52.565Z,991.65
2019-05-26T08:15:52.530Z,991.59
2019-05-26T08:16:52.509Z,991.54
2019-05-26T08:17:52.508Z,991.55
2019-05-26T08:18:52.487Z,991.55
2019-05-26T08:19:52.493Z,991.54
2019-05-26T08:20:52.485Z,991.51
2019-05-26T08:21:54.507Z,991.49
2019-05-26T08:22:52.445Z,991.50
2019-05-26T08:23:52.432Z,991.48
2019-05-26T08:24:52.434Z,991.47
2019-05-26T08:25:52.814Z,991.42
2019-05-26T08:26:52.403Z,991.42
2019-05-26T08:27:52.392Z,991.41
2019-05-26T08:28:52.403Z,991.40
2019-05-26T08:29:52.377Z,991.35
2019-05-26T08:30:52.359Z,991.44
2019-05-26T08:31:52.354Z,991.40
2019-05-26T08:32:52.337Z,991.43
2019-05-26T08:33:52.331Z,991.36
2019-05-26T08:34:52.329Z,991.39
2019-05-26T08:35:52.309Z,991.37
2019-05-26T08:36:52.296Z,991.37
2019-05-26T08:37:52.286Z,991.33
2019-05-26T08:38:52.271Z,991.35
2019-05-26T08:39:52.281Z,991.36
2019-05-26T08:40:52.249Z,991.37
2019-05-26T08:41:52.238Z,991.32
2019-05-26T08:42:52.260Z,991.40
2019-05-26T08:43:52.218Z,991.31
2019-05-26T08:44:52.220Z,991.38
2019-05-26T08:45:52.200Z,991.30
2019-05-26T08:46:52.186Z,991.32
2019-05-26T08:47:52.195Z,991.30
2019-05-26T08:48:52.167Z,991.31
2019-05-26T08:49:52.167Z,991.27
2019-05-26T08:50:52.141Z,991.28
2019-05-26T08:51:52.131Z,991.21
2019-05-26T08:52:52.126Z,991.23
2019-05-26T08:53:52.125Z,991.29
2019-05-26T08:54:52.118Z,991.24
2019-05-26T08:55:52.104Z,991.28
2019-05-26T08:56:52.082Z,991.34
2019-05-26T08:57:52.084Z,991.33
2019-05-26T08:58:52.084Z,991.34
2019-05-26T08:59:52.061Z,991.33
2019-05-26T09:00:52.091Z,991.29
2019-05-26T09:01:52.029Z,991.34
2019-05-26T09:02:52.025Z,991.28
2019-05-26T09:03:52.021Z,991.27
2019-05-26T09:04:52.039Z,991.24
2019-05-26T09:05:51.988Z,991.25
2019-05-26T09:06:51.982Z,991.31
2019-05-26T09:07:51.964Z,991.29
2019-05-26T09:08:51.966Z,991.31
2019-05-26T09:09:51.954Z,991.28
2019-05-26T09:10:51.935Z,991.29
2019-05-26T09:11:51.931Z,991.28
2019-05-26T09:13:00.908Z,991.30
2019-05-26T09:13:52.901Z,991.20
2019-05-26T09:14:51.972Z,991.22
2019-05-26T09:15:51.879Z,991.17
2019-05-26T09:16:51.865Z,991.21
2019-05-26T09:17:51.860Z,991.15
2019-05-26T09:18:51.856Z,991.11
2019-05-26T09:19:51.866Z,991.14
2019-05-26T09:20:51.828Z,991.12
2019-05-26T09:21:51.819Z,991.13
2019-05-26T09:22:51.805Z,991.09
2019-05-26T09:23:51.798Z,991.07
2019-05-26T09:24:51.842Z,991.11
2019-05-26T09:25:51.787Z,991.09
2019-05-26T09:26:51.770Z,991.06
2019-05-26T09:27:51.752Z,991.09
2019-05-26T09:28:51.741Z,991.09
2019-05-26T09:29:51.733Z,991.02
2019-05-26T09:30:51.736Z,991.04
2019-05-26T09:31:51.715Z,991.03
2019-05-26T09:32:51.700Z,991.12
2019-05-26T09:33:51.695Z,991.05
2019-05-26T09:34:51.695Z,991.01
2019-05-26T09:35:51.687Z,991.04
2019-05-26T09:36:51.661Z,990.96
2019-05-26T09:37:51.650Z,991.01
2019-05-26T09:38:51.651Z,990.93
2019-05-26T09:39:51.634Z,991.03
2019-05-26T09:40:51.630Z,990.91
2019-05-26T09:41:51.612Z,990.98
2019-05-26T09:42:51.602Z,990.91
2019-05-26T09:43:51.589Z,990.94
2019-05-26T09:44:51.591Z,990.91
2019-05-26T09:45:51.580Z,990.96
2019-05-26T09:46:51.572Z,990.85
2019-05-26T09:47:51.546Z,990.92
2019-05-26T09:48:51.535Z,990.93
2019-05-26T09:49:51.530Z,990.92
2019-05-26T09:50:51.531Z,990.90
2019-05-26T09:51:51.519Z,990.86
2019-05-26T09:52:51.505Z,990.93
2019-05-26T09:54:01.193Z,990.90
2019-05-26T09:54:52.474Z,991.00
2019-05-26T09:55:51.478Z,990.96
2019-05-26T09:56:51.460Z,990.94
2019-05-26T09:57:51.482Z,990.89
2019-05-26T09:58:51.442Z,990.89
2019-05-26T09:59:51.435Z,990.96
2019-05-26T10:00:51.440Z,990.94
2019-05-26T10:01:51.405Z,990.88
2019-05-26T10:02:51.397Z,990.92
2019-05-26T10:03:51.385Z,990.93
2019-05-26T10:04:51.376Z,990.85
2019-05-26T10:05:51.447Z,990.89
2019-05-26T10:06:51.353Z,990.82
2019-05-26T10:07:51.347Z,990.89
2019-05-26T10:08:51.486Z,990.84
2019-05-26T10:09:51.340Z,990.83
2019-05-26T10:10:51.324Z,990.92
2019-05-26T10:11:51.301Z,990.85
2019-05-26T10:12:51.294Z,990.89
2019-05-26T10:13:51.282Z,990.91
2019-05-26T10:14:51.281Z,990.84
2019-05-26T10:15:51.283Z,990.92
2019-05-26T10:16:51.253Z,990.89
2019-05-26T10:17:51.245Z,990.88
2019-05-26T10:18:51.233Z,990.81
2019-05-26T10:19:51.224Z,990.83
2019-05-26T10:20:51.222Z,990.81
2019-05-26T10:21:51.247Z,990.79
2019-05-26T10:22:51.196Z,990.77
2019-05-26T10:23:53.144Z,990.71
2019-05-26T10:24:51.172Z,990.78
2019-05-26T10:25:51.199Z,990.79
2019-05-26T10:26:51.156Z,990.80
2019-05-26T10:27:51.144Z,990.74
2019-05-26T10:28:51.137Z,990.77
2019-05-26T10:29:51.135Z,990.77
2019-05-26T10:30:51.124Z,990.74
2019-05-26T10:31:51.106Z,990.71
2019-05-26T10:32:51.096Z,990.73
2019-05-26T10:33:51.092Z,990.72
2019-05-26T10:34:51.076Z,990.70
2019-05-26T10:35:51.107Z,990.70
2019-05-26T10:36:51.055Z,990.65
2019-05-26T10:37:51.046Z,990.61
2019-05-26T10:38:51.035Z,990.65
2019-05-26T10:39:51.027Z,990.60
2019-05-26T10:40:51.017Z,990.60
2019-05-26T10:41:51.247Z,990.60
2019-05-26T10:42:51.005Z,990.57
2019-05-26T10:43:50.989Z,990.61
2019-05-26T10:44:50.977Z,990.65
2019-05-26T10:45:50.969Z,990.61
2019-05-26T10:46:50.972Z,990.66
2019-05-26T10:47:50.949Z,990.60
2019-05-26T10:48:50.943Z,990.62
2019-05-26T10:49:50.937Z,990.66
2019-05-26T10:50:50.925Z,990.59
2019-05-26T10:51:50.921Z,990.62
2019-05-26T10:52:50.901Z,990.62
2019-05-26T10:53:50.893Z,990.60
2019-05-26T10:54:50.886Z,990.59
2019-05-26T10:55:50.875Z,990.63
2019-05-26T10:56:50.882Z,990.59
2019-05-26T10:57:50.856Z,990.54
2019-05-26T10:58:50.856Z,990.58
2019-05-26T10:59:50.850Z,990.57
2019-05-26T11:00:50.826Z,990.58
2019-05-26T11:01:50.828Z,990.53
2019-05-26T11:02:50.808Z,990.47
2019-05-26T11:03:50.799Z,990.48
2019-05-26T11:04:50.797Z,990.52
2019-05-26T11:05:50.779Z,990.53
2019-05-26T11:06:50.786Z,990.51
2019-05-26T11:07:50.765Z,990.47
2019-05-26T11:08:50.767Z,990.46
2019-05-26T11:09:50.747Z,990.46
2019-05-26T11:10:50.734Z,990.44
2019-05-26T11:11:50.749Z,990.47
2019-05-26T11:12:50.716Z,990.44
2019-05-26T11:14:02.410Z,990.44
2019-05-26T11:14:51.699Z,990.45
2019-05-26T11:15:50.686Z,990.38
2019-05-26T11:16:51.187Z,990.41
2019-05-26T11:17:50.682Z,990.39
2019-05-26T11:18:50.677Z,990.37
2019-05-26T11:19:50.647Z,990.33
2019-05-26T11:20:50.641Z,990.41
2019-05-26T11:21:50.646Z,990.38
2019-05-26T11:22:50.624Z,990.33
2019-05-26T11:23:50.619Z,990.36
2019-05-26T11:24:50.651Z,990.35
2019-05-26T11:25:50.595Z,990.36
2019-05-26T11:26:50.609Z,990.30
2019-05-26T11:27:50.583Z,990.27
2019-05-26T11:28:50.593Z,990.29
2019-05-26T11:29:50.565Z,990.26
2019-05-26T11:30:50.548Z,990.26
2019-05-26T11:31:50.556Z,990.24
2019-05-26T11:32:50.535Z,990.18
2019-05-26T11:33:50.519Z,990.15
2019-05-26T11:35:01.116Z,990.19
2019-05-26T11:35:51.502Z,990.15
2019-05-26T11:36:50.515Z,990.17
2019-05-26T11:37:50.489Z,990.12
2019-05-26T11:38:50.474Z,990.09
2019-05-26T11:39:50.479Z,990.07
2019-05-26T11:40:50.489Z,990.10
2019-05-26T11:41:54.911Z,990.13
2019-05-26T11:42:50.457Z,990.13
2019-05-26T11:43:50.432Z,990.11
2019-05-26T11:44:50.424Z,990.09
2019-05-26T11:45:50.410Z,990.08
2019-05-26T11:46:50.401Z,990.10
2019-05-26T11:47:50.403Z,990.13
2019-05-26T11:48:50.390Z,990.12
2019-05-26T11:49:50.374Z,990.14
2019-05-26T11:50:50.364Z,990.08
2019-05-26T11:51:50.356Z,990.00
2019-05-26T11:52:50.360Z,990.15
2019-05-26T11:53:50.338Z,990.09
2019-05-26T11:54:50.329Z,989.97
2019-05-26T11:55:50.318Z,990.04
2019-05-26T11:56:50.308Z,990.16
2019-05-26T11:57:50.311Z,990.11
2019-05-26T11:58:50.290Z,990.03
2019-05-26T11:59:50.282Z,989.96
2019-05-26T12:00:50.270Z,990.05
2019-05-26T12:01:50.262Z,990.00
2019-05-26T12:02:50.263Z,990.01
2019-05-26T12:03:50.248Z,990.06
2019-05-26T12:04:50.234Z,989.76
2019-05-26T12:05:50.225Z,989.78
2019-05-26T12:06:50.215Z,989.83
2019-05-26T12:07:50.217Z,989.87
2019-05-26T12:08:50.196Z,989.92
2019-05-26T12:09:50.197Z,989.91
2019-05-26T12:10:50.182Z,989.87
2019-05-26T12:11:50.169Z,989.86
2019-05-26T12:12:50.173Z,989.81
2019-05-26T12:13:50.149Z,989.82
2019-05-26T12:14:50.139Z,989.87
2019-05-26T12:15:50.134Z,989.85
2019-05-26T12:16:50.122Z,989.87
2019-05-26T12:17:50.122Z,989.85
2019-05-26T12:18:50.117Z,989.86
2019-05-26T12:19:50.098Z,989.89
2019-05-26T12:20:50.089Z,989.86
2019-05-26T12:21:50.075Z,989.89
2019-05-26T12:22:50.084Z,989.83
2019-05-26T12:23:54.132Z,989.86
2019-05-26T12:24:50.065Z,989.57
2019-05-26T12:25:50.044Z,989.52
2019-05-26T12:26:50.032Z,989.61
2019-05-26T12:27:50.044Z,989.64
2019-05-26T12:28:50.011Z,989.57